createdAt,value
2018-08-23T00:00:03.835Z,19.53
2018-08-23T00:01:12.483Z,19.47
2018-08-23T00:02:21.141Z,19.38
2018-08-23T00:03:29.790Z,19.47
2018-08-23T00:04:38.749Z,19.42
2018-08-23T00:05:47.397Z,19.42
2018-08-23T00:06:56.042Z,19.38
2018-08-23T00:08:04.965Z,19.35
2018-08-23T00:09:13.874Z,19.35
2018-08-23T00:10:22.816Z,19.32
2018-08-23T00:11:31.965Z,19.32
2018-08-23T00:12:40.619Z,19.27
2018-08-23T00:13:49.283Z,19.19
2018-08-23T00:14:57.923Z,19.22
2018-08-23T00:16:06.828Z,19.22
2018-08-23T00:17:15.482Z,19.23
2018-08-23T00:18:24.128Z,19.12
2018-08-23T00:19:32.779Z,19.15
2018-08-23T00:20:41.423Z,19.11
2018-08-23T00:21:50.335Z,19.15
2018-08-23T00:22:58.983Z,19.2
2018-08-23T00:24:07.635Z,19.15
2018-08-23T00:25:16.286Z,19.15
2018-08-23T00:26:24.928Z,19.15
2018-08-23T00:27:33.577Z,19.08
2018-08-23T00:28:42.227Z,19.08
2018-08-23T00:29:51.153Z,19.17
2018-08-23T00:31:00.067Z,19.04
2018-08-23T00:32:08.717Z,19.08
2018-08-23T00:33:17.623Z,19.12
2018-08-23T00:34:26.274Z,19.08
2018-08-23T00:35:34.917Z,19.11
2018-08-23T00:36:43.566Z,19.09
2018-08-23T00:37:52.217Z,19.12
2018-08-23T00:39:00.867Z,19.09
2018-08-23T00:40:09.528Z,19.05
2018-08-23T00:41:18.177Z,19.07
2018-08-23T00:42:26.821Z,18.96
2018-08-23T00:43:35.467Z,19.04
2018-08-23T00:44:44.119Z,18.98
2018-08-23T00:45:52.767Z,19.04
2018-08-23T00:47:01.685Z,18.97
2018-08-23T00:48:10.329Z,18.96
2018-08-23T00:49:19.250Z,19.01
2018-08-23T00:50:27.900Z,19
2018-08-23T00:51:36.810Z,19
2018-08-23T00:52:45.456Z,19
2018-08-23T00:53:54.113Z,18.92
2018-08-23T00:55:02.763Z,18.97
2018-08-23T00:56:11.409Z,18.91
2018-08-23T00:57:20.048Z,18.89
2018-08-23T00:58:28.698Z,18.83
2018-08-23T00:59:37.610Z,18.91
2018-08-23T01:00:46.262Z,18.88
2018-08-23T01:01:54.908Z,18.85
2018-08-23T01:03:03.552Z,18.81
2018-08-23T01:04:12.199Z,18.83
2018-08-23T01:05:20.852Z,18.74
2018-08-23T01:06:29.753Z,18.73
2018-08-23T01:07:38.410Z,18.76
2018-08-23T01:08:47.314Z,18.73
2018-08-23T01:09:56.229Z,18.71
2018-08-23T01:11:04.867Z,18.63
2018-08-23T01:12:13.525Z,18.66
2018-08-23T01:13:22.175Z,18.68
2018-08-23T01:14:30.824Z,18.74
2018-08-23T01:15:39.464Z,18.73
2018-08-23T01:16:48.114Z,18.6
2018-08-23T01:17:57.043Z,18.57
2018-08-23T01:19:05.693Z,18.61
2018-08-23T01:20:14.342Z,18.53
2018-08-23T01:21:22.982Z,18.57
2018-08-23T01:22:31.901Z,18.57
2018-08-23T01:23:40.544Z,18.53
2018-08-23T01:24:49.200Z,18.52
2018-08-23T01:25:58.110Z,18.52
2018-08-23T01:27:06.756Z,18.58
2018-08-23T01:28:15.400Z,18.52
2018-08-23T01:29:24.058Z,18.51
2018-08-23T01:30:32.697Z,18.51
2018-08-23T01:31:41.347Z,18.43
2018-08-23T01:32:49.995Z,18.51
2018-08-23T01:33:58.923Z,18.45
2018-08-23T01:35:07.568Z,18.53
2018-08-23T01:36:16.472Z,18.53
2018-08-23T01:37:25.117Z,18.46
2018-08-23T01:38:33.763Z,18.46
2018-08-23T01:39:42.420Z,18.36
2018-08-23T01:40:51.324Z,18.42
2018-08-23T01:41:59.977Z,18.37
2018-08-23T01:43:08.904Z,18.39
2018-08-23T01:44:17.561Z,18.36
2018-08-23T01:45:26.205Z,18.43
2018-08-23T01:46:34.857Z,18.33
2018-08-23T01:47:43.498Z,18.33
2018-08-23T01:48:52.151Z,18.3
2018-08-23T01:50:00.796Z,18.28
2018-08-23T01:51:09.445Z,18.34
2018-08-23T01:52:18.083Z,18.3
2018-08-23T01:53:26.732Z,18.3
2018-08-23T01:54:35.382Z,18.24
2018-08-23T01:55:44.032Z,18.3
2018-08-23T01:56:52.690Z,18.26
2018-08-23T01:58:01.329Z,18.24
2018-08-23T01:59:10.253Z,18.21
2018-08-23T02:00:18.897Z,18.33
2018-08-23T02:01:27.556Z,18.27
2018-08-23T02:02:36.196Z,18.27
2018-08-23T02:03:45.111Z,18.28
2018-08-23T02:04:53.757Z,18.3
2018-08-23T02:06:02.409Z,18.31
2018-08-23T02:07:11.050Z,18.24
2018-08-23T02:08:19.700Z,18.26
2018-08-23T02:09:28.345Z,18.23
2018-08-23T02:10:36.995Z,18.28
2018-08-23T02:11:45.639Z,18.26
2018-08-23T02:12:54.551Z,18.23
2018-08-23T02:14:03.461Z,18.18
2018-08-23T02:15:12.106Z,18.15
2018-08-23T02:16:21.035Z,18.21
2018-08-23T02:17:29.687Z,18.19
2018-08-23T02:18:38.341Z,18.21
2018-08-23T02:19:47.251Z,18.13
2018-08-23T02:20:56.169Z,18.19
2018-08-23T02:22:04.819Z,18.16
2018-08-23T02:23:13.467Z,18.13
2018-08-23T02:24:22.111Z,18.11
2018-08-23T02:25:30.766Z,18.09
2018-08-23T02:26:39.411Z,18
2018-08-23T02:27:48.060Z,18.13
2018-08-23T02:28:56.705Z,18.03
2018-08-23T02:30:05.620Z,18.08
2018-08-23T02:31:14.271Z,18.06
2018-08-23T02:32:23.181Z,18.05
2018-08-23T02:33:31.833Z,18.12
2018-08-23T02:34:40.474Z,18.08
2018-08-23T02:35:49.122Z,18.02
2018-08-23T02:36:57.770Z,17.95
2018-08-23T02:38:06.808Z,17.87
2018-08-23T02:39:15.427Z,17.95
2018-08-23T02:40:24.078Z,18
2018-08-23T02:41:32.726Z,17.86
2018-08-23T02:42:41.379Z,17.94
2018-08-23T02:43:50.014Z,17.98
2018-08-23T02:44:58.664Z,17.82
2018-08-23T02:46:07.313Z,17.75
2018-08-23T02:47:15.969Z,17.79
2018-08-23T02:48:25.140Z,17.84
2018-08-23T02:49:33.787Z,17.82
2018-08-23T02:50:42.433Z,17.84
2018-08-23T02:51:51.886Z,17.82
2018-08-23T02:53:00.537Z,17.75
2018-08-23T02:54:09.190Z,17.75
2018-08-23T02:55:17.836Z,17.78
2018-08-23T02:56:26.490Z,17.75
2018-08-23T02:57:35.144Z,17.75
2018-08-23T02:58:43.790Z,17.76
2018-08-23T02:59:52.439Z,17.76
2018-08-23T03:01:01.103Z,17.76
2018-08-23T03:02:09.733Z,17.75
2018-08-23T03:03:18.395Z,17.75
2018-08-23T03:04:27.046Z,17.75
2018-08-23T03:05:35.698Z,17.76
2018-08-23T03:06:44.346Z,17.71
2018-08-23T03:07:53.002Z,17.71
2018-08-23T03:09:01.647Z,17.72
2018-08-23T03:10:10.611Z,17.66
2018-08-23T03:11:19.260Z,17.69
2018-08-23T03:12:27.910Z,17.6
2018-08-23T03:13:36.553Z,17.66
2018-08-23T03:14:45.196Z,17.69
2018-08-23T03:15:54.640Z,17.52
2018-08-23T03:17:03.546Z,17.63
2018-08-23T03:18:12.198Z,17.53
2018-08-23T03:19:20.843Z,17.63
2018-08-23T03:20:29.491Z,17.63
2018-08-23T03:21:38.136Z,17.54
2018-08-23T03:22:46.784Z,17.68
2018-08-23T03:23:55.427Z,17.5
2018-08-23T03:25:04.095Z,17.56
2018-08-23T03:26:12.740Z,17.53
2018-08-23T03:27:21.395Z,17.49
2018-08-23T03:28:30.304Z,17.46
2018-08-23T03:29:38.948Z,17.56
2018-08-23T03:30:47.605Z,17.39
2018-08-23T03:31:56.255Z,17.44
2018-08-23T03:33:05.437Z,17.44
2018-08-23T03:34:14.074Z,17.53
2018-08-23T03:35:22.726Z,17.47
2018-08-23T03:36:31.909Z,17.42
2018-08-23T03:37:40.561Z,17.53
2018-08-23T03:38:49.207Z,17.42
2018-08-23T03:39:57.857Z,17.57
2018-08-23T03:41:06.761Z,17.52
2018-08-23T03:42:15.418Z,17.52
2018-08-23T03:43:24.320Z,17.39
2018-08-23T03:44:32.969Z,17.41
2018-08-23T03:45:41.873Z,17.35
2018-08-23T03:46:50.517Z,17.42
2018-08-23T03:47:59.169Z,17.35
2018-08-23T03:49:08.344Z,17.32
2018-08-23T03:50:17.000Z,17.32
2018-08-23T03:51:25.902Z,17.35
2018-08-23T03:52:34.677Z,17.35
2018-08-23T03:53:43.606Z,17.37
2018-08-23T03:54:52.703Z,17.27
2018-08-23T03:56:01.349Z,17.3
2018-08-23T03:57:10.003Z,17.23
2018-08-23T03:58:18.650Z,17.3
2018-08-23T03:59:27.309Z,17.2
2018-08-23T04:00:35.950Z,17.28
2018-08-23T04:01:44.597Z,17.14
2018-08-23T04:02:53.246Z,17.22
2018-08-23T04:04:02.167Z,17.24
2018-08-23T04:05:10.817Z,17.22
2018-08-23T04:06:19.714Z,17.2
2018-08-23T04:07:28.638Z,17.16
2018-08-23T04:08:37.284Z,17.17
2018-08-23T04:09:45.936Z,17.13
2018-08-23T04:10:54.577Z,17.13
2018-08-23T04:12:03.227Z,17.16
2018-08-23T04:13:12.131Z,17.14
2018-08-23T04:14:20.785Z,17.13
2018-08-23T04:15:29.525Z,17.19
2018-08-23T04:16:38.074Z,17.14
2018-08-23T04:17:46.721Z,17.16
2018-08-23T04:18:55.376Z,17.16
2018-08-23T04:20:04.023Z,17.09
2018-08-23T04:21:12.664Z,17.13
2018-08-23T04:22:21.573Z,17.13
2018-08-23T04:23:30.222Z,17.16
2018-08-23T04:24:38.873Z,17.09
2018-08-23T04:25:47.518Z,17.14
2018-08-23T04:26:56.170Z,17.09
2018-08-23T04:28:05.070Z,17.09
2018-08-23T04:29:13.728Z,17.16
2018-08-23T04:30:22.378Z,17.1
2018-08-23T04:31:31.297Z,17.12
2018-08-23T04:32:39.933Z,17.16
2018-08-23T04:33:48.587Z,17.05
2018-08-23T04:34:57.514Z,17.09
2018-08-23T04:36:06.420Z,17.14
2018-08-23T04:37:15.061Z,17.16
2018-08-23T04:38:24.238Z,17.14
2018-08-23T04:39:33.418Z,17.12
2018-08-23T04:40:42.070Z,17.16
2018-08-23T04:41:50.718Z,17.16
2018-08-23T04:42:59.360Z,17.14
2018-08-23T04:44:08.011Z,17.16
2018-08-23T04:45:16.653Z,17.24
2018-08-23T04:46:25.575Z,17.14
2018-08-23T04:47:34.211Z,17.14
2018-08-23T04:48:42.864Z,17.19
2018-08-23T04:49:51.771Z,17.2
2018-08-23T04:51:00.429Z,17.22
2018-08-23T04:52:09.075Z,17.24
2018-08-23T04:53:17.717Z,17.24
2018-08-23T04:54:26.625Z,17.2
2018-08-23T04:55:35.280Z,17.17
2018-08-23T04:56:43.923Z,17.27
2018-08-23T04:57:52.564Z,17.2
2018-08-23T04:59:01.210Z,17.2
2018-08-23T05:00:09.856Z,17.24
2018-08-23T05:01:18.510Z,17.22
2018-08-23T05:02:27.161Z,17.16
2018-08-23T05:03:36.075Z,17.13
2018-08-23T05:04:44.979Z,17.24
2018-08-23T05:05:53.631Z,17.14
2018-08-23T05:07:02.535Z,17.14
2018-08-23T05:08:11.182Z,17.28
2018-08-23T05:09:19.826Z,17.28
2018-08-23T05:10:28.484Z,17.3
2018-08-23T05:11:37.131Z,17.27
2018-08-23T05:12:46.044Z,17.32
2018-08-23T05:13:55.036Z,17.38
2018-08-23T05:15:03.652Z,17.31
2018-08-23T05:16:12.299Z,17.28
2018-08-23T05:17:20.948Z,17.34
2018-08-23T05:18:29.864Z,17.34
2018-08-23T05:19:38.504Z,17.39
2018-08-23T05:20:47.154Z,17.32
2018-08-23T05:21:56.067Z,17.31
2018-08-23T05:23:04.806Z,17.44
2018-08-23T05:24:13.737Z,17.37
2018-08-23T05:25:22.393Z,17.42
2018-08-23T05:26:31.031Z,17.46
2018-08-23T05:27:39.689Z,17.49
2018-08-23T05:28:48.339Z,17.49
2018-08-23T05:29:57.081Z,17.46
2018-08-23T05:31:05.641Z,17.56
2018-08-23T05:32:14.290Z,17.53
2018-08-23T05:33:22.933Z,17.53
2018-08-23T05:34:31.584Z,17.56
2018-08-23T05:35:40.504Z,17.53
2018-08-23T05:36:49.150Z,17.53
2018-08-23T05:37:57.803Z,17.63
2018-08-23T05:39:06.722Z,17.63
2018-08-23T05:40:15.369Z,17.57
2018-08-23T05:41:24.010Z,17.66
2018-08-23T05:42:32.928Z,17.73
2018-08-23T05:43:41.573Z,17.68
2018-08-23T05:44:50.220Z,17.75
2018-08-23T05:45:58.868Z,17.75
2018-08-23T05:47:07.514Z,17.82
2018-08-23T05:48:16.158Z,17.82
2018-08-23T05:49:25.072Z,17.75
2018-08-23T05:50:33.724Z,17.8
2018-08-23T05:51:42.635Z,17.91
2018-08-23T05:52:51.282Z,17.94
2018-08-23T05:53:59.932Z,17.94
2018-08-23T05:55:08.585Z,17.9
2018-08-23T05:56:17.228Z,17.94
2018-08-23T05:57:25.878Z,18.03
2018-08-23T05:58:34.520Z,18.06
2018-08-23T05:59:43.176Z,18.09
2018-08-23T06:00:51.818Z,18.12
2018-08-23T06:02:00.731Z,18.11
2018-08-23T06:03:09.483Z,18.15
2018-08-23T06:04:18.135Z,18.21
2018-08-23T06:05:26.771Z,18.16
2018-08-23T06:06:35.426Z,18.26
2018-08-23T06:07:44.331Z,18.21
2018-08-23T06:08:53.250Z,18.3
2018-08-23T06:10:01.896Z,18.42
2018-08-23T06:11:10.536Z,18.45
2018-08-23T06:12:19.183Z,18.42
2018-08-23T06:13:27.835Z,18.51
2018-08-23T06:14:36.489Z,18.55
2018-08-23T06:15:45.129Z,18.51
2018-08-23T06:16:53.781Z,18.61
2018-08-23T06:18:02.425Z,18.6
2018-08-23T06:19:11.342Z,18.61
2018-08-23T06:20:19.988Z,18.66
2018-08-23T06:21:28.641Z,18.74
2018-08-23T06:22:37.282Z,18.73
2018-08-23T06:23:45.938Z,18.79
2018-08-23T06:24:54.584Z,18.83
2018-08-23T06:26:03.235Z,18.85
2018-08-23T06:27:11.899Z,18.85
2018-08-23T06:28:20.877Z,18.97
2018-08-23T06:29:29.797Z,18.96
2018-08-23T06:30:38.445Z,18.97
2018-08-23T06:31:47.104Z,19
2018-08-23T06:32:55.805Z,18.98
2018-08-23T06:34:04.884Z,19.01
2018-08-23T06:35:13.455Z,19.08
2018-08-23T06:36:22.379Z,19.15
2018-08-23T06:37:31.343Z,19.15
2018-08-23T06:38:40.010Z,19.07
2018-08-23T06:39:48.879Z,19.29
2018-08-23T06:40:57.533Z,19.22
2018-08-23T06:42:06.172Z,19.26
2018-08-23T06:43:14.836Z,19.3
2018-08-23T06:44:23.503Z,19.41
2018-08-23T06:45:32.126Z,19.48
2018-08-23T06:46:40.772Z,19.47
2018-08-23T06:47:49.678Z,19.59
2018-08-23T06:48:58.359Z,19.6
2018-08-23T06:50:06.967Z,19.64
2018-08-23T06:51:15.938Z,19.72
2018-08-23T06:52:24.546Z,19.64
2018-08-23T06:53:33.180Z,19.71
2018-08-23T06:54:41.819Z,19.75
2018-08-23T06:55:50.469Z,19.78
2018-08-23T06:56:59.121Z,19.78
2018-08-23T06:58:07.764Z,19.81
2018-08-23T06:59:16.422Z,19.77
2018-08-23T07:00:25.581Z,19.85
2018-08-23T07:01:34.494Z,20
2018-08-23T07:02:43.446Z,19.92
2018-08-23T07:03:52.162Z,19.92
2018-08-23T07:05:01.263Z,19.94
2018-08-23T07:06:09.907Z,20.04
2018-08-23T07:07:18.554Z,20.07
2018-08-23T07:08:27.465Z,20.07
2018-08-23T07:09:36.124Z,20.15
2018-08-23T07:10:44.776Z,20.19
2018-08-23T07:11:53.505Z,20.21
2018-08-23T07:13:02.078Z,20.24
2018-08-23T07:14:10.739Z,20.32
2018-08-23T07:15:19.387Z,20.27
2018-08-23T07:16:28.040Z,20.37
2018-08-23T07:17:37.521Z,20.4
2018-08-23T07:18:45.985Z,20.46
2018-08-23T07:19:54.630Z,20.46
2018-08-23T07:21:03.280Z,20.55
2018-08-23T07:22:11.920Z,20.59
2018-08-23T07:23:20.573Z,20.66
2018-08-23T07:24:29.756Z,20.63
2018-08-23T07:25:38.441Z,20.77
2018-08-23T07:26:47.130Z,20.75
2018-08-23T07:27:56.033Z,20.88
2018-08-23T07:29:04.685Z,20.9
2018-08-23T07:30:13.334Z,20.89
2018-08-23T07:31:21.998Z,21
2018-08-23T07:32:31.235Z,21.05
2018-08-23T07:33:39.888Z,21.08
2018-08-23T07:34:48.532Z,21.13
2018-08-23T07:35:57.194Z,21.14
2018-08-23T07:37:05.831Z,21.17
2018-08-23T07:38:14.483Z,21.26
2018-08-23T07:39:23.259Z,21.22
2018-08-23T07:40:31.788Z,21.25
2018-08-23T07:41:40.432Z,21.25
2018-08-23T07:42:49.079Z,21.43
2018-08-23T07:43:57.724Z,21.33
2018-08-23T07:45:06.372Z,21.35
2018-08-23T07:46:15.028Z,21.38
2018-08-23T07:47:23.672Z,21.43
2018-08-23T07:48:32.373Z,21.41
2018-08-23T07:49:41.012Z,21.44
2018-08-23T07:50:49.937Z,21.44
2018-08-23T07:51:58.585Z,21.5
2018-08-23T07:53:07.889Z,21.59
2018-08-23T07:54:16.455Z,21.58
2018-08-23T07:55:25.108Z,21.58
2018-08-23T07:56:33.755Z,21.62
2018-08-23T07:57:42.674Z,21.54
2018-08-23T07:58:51.317Z,21.58
2018-08-23T07:59:59.972Z,21.69
2018-08-23T08:01:09.146Z,21.68
2018-08-23T08:02:17.799Z,21.62
2018-08-23T08:03:26.448Z,21.66
2018-08-23T08:04:35.092Z,21.66
2018-08-23T08:05:44.012Z,21.72
2018-08-23T08:06:52.659Z,21.78
2018-08-23T08:08:01.309Z,21.81
2018-08-23T08:09:09.956Z,21.84
2018-08-23T08:10:18.606Z,21.88
2018-08-23T08:11:27.257Z,21.89
2018-08-23T08:12:35.911Z,21.94
2018-08-23T08:13:44.558Z,21.97
2018-08-23T08:14:53.312Z,22.03
2018-08-23T08:16:01.860Z,22
2018-08-23T08:17:10.775Z,21.96
2018-08-23T08:18:19.426Z,22.07
2018-08-23T08:19:28.083Z,22.08
2018-08-23T08:20:36.749Z,22.14
2018-08-23T08:21:45.492Z,22.18
2018-08-23T08:22:54.103Z,22.16
2018-08-23T08:24:02.965Z,22.18
2018-08-23T08:25:13.717Z,22.18
2018-08-23T08:26:22.365Z,22.25
2018-08-23T08:27:31.020Z,22.31
2018-08-23T08:28:39.671Z,22.26
2018-08-23T08:29:48.320Z,22.36
2018-08-23T08:30:56.966Z,22.34
2018-08-23T08:32:05.627Z,22.37
2018-08-23T08:33:14.699Z,22.3
2018-08-23T08:34:23.623Z,22.38
2018-08-23T08:35:32.267Z,22.36
2018-08-23T08:36:40.920Z,22.41
2018-08-23T08:37:49.571Z,22.51
2018-08-23T08:38:58.237Z,22.43
2018-08-23T08:40:06.883Z,22.52
2018-08-23T08:41:15.533Z,22.58
2018-08-23T08:42:24.446Z,22.7
2018-08-23T08:43:33.098Z,22.76
2018-08-23T08:44:41.754Z,22.78
2018-08-23T08:45:50.406Z,22.77
2018-08-23T08:46:59.057Z,22.89
2018-08-23T08:48:07.707Z,22.89
2018-08-23T08:49:16.362Z,22.93
2018-08-23T08:50:25.061Z,22.91
2018-08-23T08:51:34.010Z,22.91
2018-08-23T08:52:42.918Z,22.89
2018-08-23T08:53:51.574Z,22.84
2018-08-23T08:55:00.224Z,22.91
2018-08-23T08:56:09.137Z,22.96
2018-08-23T08:57:17.861Z,22.98
2018-08-23T08:58:26.434Z,23.1
2018-08-23T08:59:35.090Z,23.2
2018-08-23T09:00:43.745Z,23.26
2018-08-23T09:01:52.662Z,23.26
2018-08-23T09:03:01.339Z,23.44
2018-08-23T09:04:09.964Z,23.4
2018-08-23T09:05:18.618Z,23.52
2018-08-23T09:06:27.267Z,23.58
2018-08-23T09:07:35.913Z,23.59
2018-08-23T09:08:44.566Z,23.66
2018-08-23T09:09:53.292Z,23.74
2018-08-23T09:11:01.868Z,23.73
2018-08-23T09:12:10.526Z,23.81
2018-08-23T09:13:19.168Z,23.71
2018-08-23T09:14:27.819Z,23.82
2018-08-23T09:15:36.473Z,23.88
2018-08-23T09:16:45.125Z,23.79
2018-08-23T09:17:53.772Z,23.84
2018-08-23T09:19:02.425Z,23.85
2018-08-23T09:20:11.344Z,23.85
2018-08-23T09:21:20.003Z,23.89
2018-08-23T09:22:28.657Z,23.92
2018-08-23T09:23:37.309Z,23.92
2018-08-23T09:24:45.960Z,23.88
2018-08-23T09:25:54.708Z,23.92
2018-08-23T09:27:03.384Z,23.91
2018-08-23T09:28:12.579Z,24.01
2018-08-23T09:29:21.231Z,24
2018-08-23T09:30:30.148Z,24.09
2018-08-23T09:31:38.794Z,24.07
2018-08-23T09:32:47.508Z,24.07
2018-08-23T09:33:56.439Z,24.11
2018-08-23T09:35:05.154Z,24.22
2018-08-23T09:36:14.020Z,24.24
2018-08-23T09:37:22.671Z,24.29
2018-08-23T09:38:31.325Z,24.29
2018-08-23T09:39:39.972Z,24.32
2018-08-23T09:40:48.628Z,24.43
2018-08-23T09:41:57.625Z,24.46
2018-08-23T09:43:06.363Z,24.58
2018-08-23T09:44:14.932Z,24.66
2018-08-23T09:45:23.846Z,24.86
2018-08-23T09:46:33.119Z,24.92
2018-08-23T09:47:41.778Z,24.86
2018-08-23T09:48:50.419Z,24.93
2018-08-23T09:49:59.106Z,24.94
2018-08-23T09:51:07.780Z,24.86
2018-08-23T09:52:16.808Z,24.86
2018-08-23T09:53:25.418Z,24.81
2018-08-23T09:54:34.323Z,24.69
2018-08-23T09:55:42.979Z,24.71
2018-08-23T09:56:51.627Z,24.59
2018-08-23T09:58:00.287Z,24.51
2018-08-23T09:59:08.930Z,24.44
2018-08-23T10:00:17.583Z,24.5
2018-08-23T10:01:26.231Z,24.55
2018-08-23T10:02:34.887Z,24.44
2018-08-23T10:03:43.529Z,24.58
2018-08-23T10:04:52.612Z,24.59
2018-08-23T10:06:01.260Z,24.63
2018-08-23T10:07:09.921Z,24.69
2018-08-23T10:08:18.830Z,24.85
2018-08-23T10:09:27.531Z,24.81
2018-08-23T10:10:36.180Z,24.86
2018-08-23T10:11:44.900Z,25.04
2018-08-23T10:12:53.494Z,25.16
2018-08-23T10:14:02.142Z,25.22
2018-08-23T10:15:10.799Z,25.33
2018-08-23T10:16:19.457Z,25.43
2018-08-23T10:17:28.385Z,25.33
2018-08-23T10:18:37.032Z,25.31
2018-08-23T10:19:45.972Z,25.29
2018-08-23T10:20:54.614Z,25.34
2018-08-23T10:22:03.281Z,25.33
2018-08-23T10:23:11.928Z,25.34
2018-08-23T10:24:20.580Z,25.54
2018-08-23T10:25:29.484Z,25.48
2018-08-23T10:26:38.191Z,25.61
2018-08-23T10:27:46.794Z,25.48
2018-08-23T10:28:55.457Z,25.49
2018-08-23T10:30:04.123Z,25.48
2018-08-23T10:31:12.753Z,25.43
2018-08-23T10:32:21.552Z,25.52
2018-08-23T10:33:30.061Z,25.68
2018-08-23T10:34:38.724Z,25.63
2018-08-23T10:35:47.375Z,25.76
2018-08-23T10:36:56.032Z,25.89
2018-08-23T10:38:04.733Z,25.95
2018-08-23T10:39:13.340Z,26.1
2018-08-23T10:40:21.980Z,26.18
2018-08-23T10:41:30.635Z,26.27
2018-08-23T10:42:39.283Z,26.34
2018-08-23T10:43:47.945Z,26.48
2018-08-23T10:44:56.596Z,26.56
2018-08-23T10:46:05.250Z,26.71
2018-08-23T10:47:14.162Z,26.71
2018-08-23T10:48:23.325Z,26.7
2018-08-23T10:49:31.980Z,26.7
2018-08-23T10:50:41.035Z,26.82
2018-08-23T10:51:49.794Z,26.83
2018-08-23T10:52:58.455Z,26.82
2018-08-23T10:54:07.098Z,26.88
2018-08-23T10:55:15.991Z,26.76
2018-08-23T10:56:24.789Z,26.71
2018-08-23T10:57:33.450Z,26.61
2018-08-23T10:58:42.442Z,26.63
2018-08-23T10:59:52.720Z,26.59
2018-08-23T11:01:01.654Z,26.68
2018-08-23T11:02:10.318Z,26.56
2018-08-23T11:03:19.232Z,26.52
2018-08-23T11:04:28.141Z,26.42
2018-08-23T11:05:38.691Z,26.37
2018-08-23T11:06:47.342Z,26.36
2018-08-23T11:07:56.003Z,26.3
2018-08-23T11:09:04.652Z,26.24
2018-08-23T11:10:13.312Z,26.24
2018-08-23T11:11:21.955Z,26.24
2018-08-23T11:12:30.618Z,26.1
2018-08-23T11:13:39.268Z,25.98
2018-08-23T11:14:47.925Z,25.86
2018-08-23T11:15:56.569Z,25.77
2018-08-23T11:17:05.436Z,25.85
2018-08-23T11:18:14.466Z,25.83
2018-08-23T11:19:23.382Z,25.78
2018-08-23T11:20:32.025Z,25.8
2018-08-23T11:21:40.694Z,25.81
2018-08-23T11:22:49.353Z,25.86
2018-08-23T11:23:58.011Z,25.93
2018-08-23T11:25:06.668Z,26.08
2018-08-23T11:26:15.313Z,26.18
2018-08-23T11:27:23.970Z,26.29
2018-08-23T11:28:32.618Z,26.26
2018-08-23T11:29:41.448Z,26.22
2018-08-23T11:30:49.925Z,26.26
2018-08-23T11:31:58.585Z,26.26
2018-08-23T11:33:07.233Z,26.31
2018-08-23T11:34:15.893Z,26.39
2018-08-23T11:35:24.804Z,26.64
2018-08-23T11:36:33.462Z,26.76
2018-08-23T11:37:42.114Z,26.82
2018-08-23T11:38:50.773Z,26.86
2018-08-23T11:39:59.426Z,26.97
2018-08-23T11:41:08.077Z,26.97
2018-08-23T11:42:16.729Z,27.03
2018-08-23T11:43:25.380Z,27.16
2018-08-23T11:44:34.041Z,27.28
2018-08-23T11:45:42.692Z,27.23
2018-08-23T11:46:51.348Z,27.25
2018-08-23T11:47:59.993Z,27.19
2018-08-23T11:49:08.653Z,27.19
2018-08-23T11:50:17.302Z,27.11
2018-08-23T11:51:25.954Z,27
2018-08-23T11:52:34.605Z,26.98
2018-08-23T11:53:43.869Z,26.79
2018-08-23T11:54:52.364Z,26.81
2018-08-23T11:56:01.025Z,26.74
2018-08-23T11:57:09.677Z,26.78
2018-08-23T11:58:18.350Z,26.73
2018-08-23T11:59:26.984Z,26.82
2018-08-23T12:00:35.639Z,26.83
2018-08-23T12:01:44.294Z,27.01
2018-08-23T12:02:52.942Z,27.05
2018-08-23T12:04:01.603Z,27.2
2018-08-23T12:05:10.793Z,27.25
2018-08-23T12:06:19.717Z,27.19
2018-08-23T12:07:28.363Z,27.43
2018-08-23T12:08:37.021Z,27.44
2018-08-23T12:09:45.710Z,27.6
2018-08-23T12:10:54.928Z,27.68
2018-08-23T12:12:03.577Z,27.78
2018-08-23T12:13:12.496Z,27.86
2018-08-23T12:14:21.153Z,27.97
2018-08-23T12:15:30.132Z,27.93
2018-08-23T12:16:39.025Z,27.98
2018-08-23T12:17:47.680Z,28.03
2018-08-23T12:18:56.333Z,27.95
2018-08-23T12:20:04.983Z,28.09
2018-08-23T12:21:13.640Z,28.06
2018-08-23T12:22:22.294Z,27.93
2018-08-23T12:23:30.946Z,27.83
2018-08-23T12:24:39.861Z,27.75
2018-08-23T12:25:48.625Z,27.67
2018-08-23T12:26:57.176Z,27.61
2018-08-23T12:28:05.830Z,27.44
2018-08-23T12:29:14.480Z,27.35
2018-08-23T12:30:23.137Z,27.35
2018-08-23T12:31:31.835Z,27.25
2018-08-23T12:32:40.446Z,27.22
2018-08-23T12:33:49.102Z,27.16
2018-08-23T12:34:57.785Z,27.2
2018-08-23T12:36:06.675Z,27.15
2018-08-23T12:37:15.591Z,27.2
2018-08-23T12:38:24.248Z,27.22
2018-08-23T12:39:32.896Z,27.28
2018-08-23T12:40:41.812Z,27.34
2018-08-23T12:41:50.466Z,27.37
2018-08-23T12:42:59.127Z,27.44
2018-08-23T12:44:07.775Z,27.63
2018-08-23T12:45:16.430Z,27.66
2018-08-23T12:46:25.161Z,27.71
2018-08-23T12:47:33.744Z,27.72
2018-08-23T12:48:42.389Z,27.68
2018-08-23T12:49:51.133Z,27.71
2018-08-23T12:50:59.695Z,27.73
2018-08-23T12:52:08.363Z,27.73
2018-08-23T12:53:17.047Z,27.68
2018-08-23T12:54:25.745Z,27.67
2018-08-23T12:55:34.396Z,27.73
2018-08-23T12:56:43.047Z,27.76
2018-08-23T12:57:51.710Z,27.9
2018-08-23T12:59:00.360Z,28
2018-08-23T13:00:09.031Z,27.91
2018-08-23T13:01:18.005Z,27.88
2018-08-23T13:02:27.037Z,27.93
2018-08-23T13:03:36.465Z,27.97
2018-08-23T13:04:45.456Z,27.82
2018-08-23T13:05:54.105Z,27.73
2018-08-23T13:07:02.765Z,27.61
2018-08-23T13:08:11.443Z,27.47
2018-08-23T13:09:20.398Z,27.53
2018-08-23T13:10:29.043Z,27.48
2018-08-23T13:11:37.699Z,27.5
2018-08-23T13:12:46.359Z,27.45
2018-08-23T13:13:55.015Z,27.58
2018-08-23T13:15:03.671Z,27.63
2018-08-23T13:16:12.316Z,27.47
2018-08-23T13:17:20.973Z,27.44
2018-08-23T13:18:29.887Z,27.41
2018-08-23T13:19:38.871Z,27.4
2018-08-23T13:20:47.517Z,27.23
2018-08-23T13:21:56.250Z,27.33
2018-08-23T13:23:05.246Z,27.29
2018-08-23T13:24:13.901Z,27.34
2018-08-23T13:25:22.547Z,27.28
2018-08-23T13:26:31.463Z,27.2
2018-08-23T13:27:40.743Z,27.22
2018-08-23T13:28:49.253Z,27.26
2018-08-23T13:29:57.932Z,27.26
2018-08-23T13:31:06.557Z,27.28
2018-08-23T13:32:15.208Z,27.28
2018-08-23T13:33:23.864Z,27.18
2018-08-23T13:34:32.529Z,27.19
2018-08-23T13:35:41.181Z,27.19
2018-08-23T13:36:49.902Z,27.23
2018-08-23T13:37:58.486Z,27.38
2018-08-23T13:39:07.152Z,27.4
2018-08-23T13:40:15.800Z,27.45
2018-08-23T13:41:24.457Z,27.45
2018-08-23T13:42:33.133Z,27.6
2018-08-23T13:43:41.811Z,27.58
2018-08-23T13:44:50.446Z,27.67
2018-08-23T13:45:59.417Z,27.67
2018-08-23T13:47:08.334Z,27.61
2018-08-23T13:48:17.006Z,27.63
2018-08-23T13:49:25.983Z,27.57
2018-08-23T13:50:34.640Z,27.48
2018-08-23T13:51:43.304Z,27.48
2018-08-23T13:52:51.953Z,27.41
2018-08-23T13:54:00.745Z,27.44
2018-08-23T13:55:09.259Z,27.6
2018-08-23T13:56:17.918Z,27.63
2018-08-23T13:57:26.567Z,27.66
2018-08-23T13:58:35.223Z,27.67
2018-08-23T13:59:43.875Z,27.68
2018-08-23T14:00:52.534Z,27.68
2018-08-23T14:02:01.182Z,27.72
2018-08-23T14:03:10.111Z,27.66
2018-08-23T14:04:18.757Z,27.78
2018-08-23T14:05:27.415Z,27.75
2018-08-23T14:06:36.461Z,27.75
2018-08-23T14:07:45.253Z,27.68
2018-08-23T14:08:53.764Z,27.64
2018-08-23T14:10:02.416Z,27.6
2018-08-23T14:11:11.182Z,27.5
2018-08-23T14:12:20.122Z,27.47
2018-08-23T14:13:28.774Z,27.5
2018-08-23T14:14:37.423Z,27.47
2018-08-23T14:15:46.079Z,27.37
2018-08-23T14:16:54.734Z,27.38
2018-08-23T14:18:03.391Z,27.28
2018-08-23T14:19:12.089Z,27.26
2018-08-23T14:20:20.697Z,27.22
2018-08-23T14:21:29.613Z,27.19
2018-08-23T14:22:38.532Z,27.23
2018-08-23T14:23:47.179Z,27.19
2018-08-23T14:24:55.833Z,27.23
2018-08-23T14:26:04.750Z,27.23
2018-08-23T14:27:13.515Z,27.19
2018-08-23T14:28:22.058Z,27.37
2018-08-23T14:29:30.706Z,27.41
2018-08-23T14:30:39.359Z,27.44
2018-08-23T14:31:48.012Z,27.35
2018-08-23T14:32:56.677Z,27.41
2018-08-23T14:34:05.659Z,27.38
2018-08-23T14:35:14.312Z,27.37
2018-08-23T14:36:23.229Z,27.26
2018-08-23T14:37:31.887Z,27.26
2018-08-23T14:38:40.583Z,27.19
2018-08-23T14:39:49.199Z,27.18
2018-08-23T14:40:57.849Z,27.25
2018-08-23T14:42:06.788Z,27.16
2018-08-23T14:43:15.439Z,27.16
2018-08-23T14:44:24.178Z,27.13
2018-08-23T14:45:32.748Z,27.18
2018-08-23T14:46:41.567Z,27.22
2018-08-23T14:47:50.051Z,27.25